sensor_id;sensor_type;location;lat;lon;timestamp;P1;durP1;ratioP1;P2;durP2;ratioP2
25567;SDS011;13455;51.480;7.594;2023-02-04T00:01:35;31.20;;;5.10;;
25567;SDS011;13455;51.480;7.594;2023-02-04T00:04:01;39.20;;;5.80;;
25567;SDS011;13455;51.480;7.594;2023-02-04T00:06:27;32.03;;;4.82;;
25567;SDS011;13455;51.480;7.594;2023-02-04T00:08:52;29.00;;;5.60;;
25567;SDS011;13455;51.480;7.594;2023-02-04T00:11:18;38.85;;;5.93;;
25567;SDS011;13455;51.480;7.594;2023-02-04T00:13:43;38.08;;;5.65;;
25567;SDS011;13455;51.480;7.594;2023-02-04T00:16:09;32.17;;;5.47;;
25567;SDS011;13455;51.480;7.594;2023-02-04T00:18:35;34.42;;;5.55;;
25567;SDS011;13455;51.480;7.594;2023-02-04T00:21:00;29.15;;;5.30;;
25567;SDS011;13455;51.480;7.594;2023-02-04T00:23:26;30.95;;;5.03;;
25567;SDS011;13455;51.480;7.594;2023-02-04T00:25:51;32.90;;;5.50;;
25567;SDS011;13455;51.480;7.594;2023-02-04T00:28:17;32.38;;;5.07;;
25567;SDS011;13455;51.480;7.594;2023-02-04T00:30:43;33.70;;;5.25;;
25567;SDS011;13455;51.480;7.594;2023-02-04T00:33:09;32.53;;;5.20;;
25567;SDS011;13455;51.480;7.594;2023-02-04T00:35:34;34.07;;;5.03;;
25567;SDS011;13455;51.480;7.594;2023-02-04T00:38:04;35.63;;;5.35;;
25567;SDS011;13455;51.480;7.594;2023-02-04T00:40:30;33.88;;;4.85;;
25567;SDS011;13455;51.480;7.594;2023-02-04T00:42:56;29.40;;;4.82;;
25567;SDS011;13455;51.480;7.594;2023-02-04T00:45:22;34.00;;;5.05;;
25567;SDS011;13455;51.480;7.594;2023-02-04T00:47:48;32.53;;;5.22;;
25567;SDS011;13455;51.480;7.594;2023-02-04T00:50:13;34.38;;;5.93;;
25567;SDS011;13455;51.480;7.594;2023-02-04T00:52:39;31.70;;;5.28;;
25567;SDS011;13455;51.480;7.594;2023-02-04T00:55:05;32.93;;;5.27;;
25567;SDS011;13455;51.480;7.594;2023-02-04T00:57:32;37.83;;;5.18;;
25567;SDS011;13455;51.480;7.594;2023-02-04T00:59:58;35.20;;;5.80;;
25567;SDS011;13455;51.480;7.594;2023-02-04T01:02:24;37.85;;;5.78;;
25567;SDS011;13455;51.480;7.594;2023-02-04T01:04:49;35.07;;;5.67;;
25567;SDS011;13455;51.480;7.594;2023-02-04T01:07:15;30.00;;;4.83;;
25567;SDS011;13455;51.480;7.594;2023-02-04T01:09:41;30.27;;;5.18;;
25567;SDS011;13455;51.480;7.594;2023-02-04T01:12:07;34.78;;;5.30;;
25567;SDS011;13455;51.480;7.594;2023-02-04T01:14:33;34.47;;;5.13;;
25567;SDS011;13455;51.480;7.594;2023-02-04T01:16:58;38.30;;;5.53;;
25567;SDS011;13455;51.480;7.594;2023-02-04T01:19:24;36.80;;;5.03;;
25567;SDS011;13455;51.480;7.594;2023-02-04T01:21:49;37.70;;;5.57;;
25567;SDS011;13455;51.480;7.594;2023-02-04T01:24:15;41.47;;;6.00;;
25567;SDS011;13455;51.480;7.594;2023-02-04T01:26:40;37.70;;;5.00;;
25567;SDS011;13455;51.480;7.594;2023-02-04T01:29:06;36.67;;;5.40;;
25567;SDS011;13455;51.480;7.594;2023-02-04T01:31:32;32.40;;;5.17;;
25567;SDS011;13455;51.480;7.594;2023-02-04T01:33:58;33.05;;;5.45;;
25567;SDS011;13455;51.480;7.594;2023-02-04T01:36:25;39.95;;;5.63;;
25567;SDS011;13455;51.480;7.594;2023-02-04T01:38:51;28.40;;;5.03;;
25567;SDS011;13455;51.480;7.594;2023-02-04T01:41:16;34.40;;;5.35;;
25567;SDS011;13455;51.480;7.594;2023-02-04T01:43:43;31.98;;;4.68;;
25567;SDS011;13455;51.480;7.594;2023-02-04T01:46:12;34.20;;;5.30;;
25567;SDS011;13455;51.480;7.594;2023-02-04T01:48:39;31.00;;;5.23;;
25567;SDS011;13455;51.480;7.594;2023-02-04T01:51:06;34.58;;;5.57;;
25567;SDS011;13455;51.480;7.594;2023-02-04T01:53:35;37.58;;;5.50;;
25567;SDS011;13455;51.480;7.594;2023-02-04T01:56:10;30.17;;;5.00;;
25567;SDS011;13455;51.480;7.594;2023-02-04T01:58:43;34.22;;;5.82;;
25567;SDS011;13455;51.480;7.594;2023-02-04T02:01:10;39.37;;;5.93;;
25567;SDS011;13455;51.480;7.594;2023-02-04T02:03:40;36.80;;;5.53;;
25567;SDS011;13455;51.480;7.594;2023-02-04T02:06:06;33.70;;;5.53;;
25567;SDS011;13455;51.480;7.594;2023-02-04T02:08:35;30.38;;;5.07;;
25567;SDS011;13455;51.480;7.594;2023-02-04T02:11:01;37.97;;;6.07;;
25567;SDS011;13455;51.480;7.594;2023-02-04T02:13:27;34.75;;;5.47;;
25567;SDS011;13455;51.480;7.594;2023-02-04T02:15:53;36.40;;;5.67;;
25567;SDS011;13455;51.480;7.594;2023-02-04T02:18:19;34.67;;;5.50;;
25567;SDS011;13455;51.480;7.594;2023-02-04T02:20:44;36.97;;;6.13;;
25567;SDS011;13455;51.480;7.594;2023-02-04T02:23:22;38.28;;;5.47;;
25567;SDS011;13455;51.480;7.594;2023-02-04T02:26:09;40.57;;;6.13;;
25567;SDS011;13455;51.480;7.594;2023-02-04T02:28:35;32.03;;;5.72;;
25567;SDS011;13455;51.480;7.594;2023-02-04T02:31:01;37.90;;;5.28;;
25567;SDS011;13455;51.480;7.594;2023-02-04T02:33:26;36.63;;;5.68;;
25567;SDS011;13455;51.480;7.594;2023-02-04T02:35:52;32.47;;;5.50;;
25567;SDS011;13455;51.480;7.594;2023-02-04T02:38:18;38.85;;;5.82;;
25567;SDS011;13455;51.480;7.594;2023-02-04T02:40:44;35.00;;;5.87;;
25567;SDS011;13455;51.480;7.594;2023-02-04T02:43:17;36.03;;;5.40;;
25567;SDS011;13455;51.480;7.594;2023-02-04T02:45:45;32.95;;;5.35;;
25567;SDS011;13455;51.480;7.594;2023-02-04T02:48:11;33.17;;;5.28;;
25567;SDS011;13455;51.480;7.594;2023-02-04T02:50:37;34.50;;;5.70;;
25567;SDS011;13455;51.480;7.594;2023-02-04T02:53:05;34.35;;;5.28;;
25567;SDS011;13455;51.480;7.594;2023-02-04T02:55:36;35.63;;;5.40;;
25567;SDS011;13455;51.480;7.594;2023-02-04T02:58:02;38.65;;;5.30;;
25567;SDS011;13455;51.480;7.594;2023-02-04T03:00:28;38.95;;;5.50;;
25567;SDS011;13455;51.480;7.594;2023-02-04T03:05:24;35.90;;;5.87;;
25567;SDS011;13455;51.480;7.594;2023-02-04T03:07:50;35.33;;;5.55;;
25567;SDS011;13455;51.480;7.594;2023-02-04T03:10:16;41.40;;;6.15;;
25567;SDS011;13455;51.480;7.594;2023-02-04T03:12:43;37.45;;;5.28;;
25567;SDS011;13455;51.480;7.594;2023-02-04T03:15:10;37.92;;;5.25;;
25567;SDS011;13455;51.480;7.594;2023-02-04T03:17:37;39.08;;;5.65;;
25567;SDS011;13455;51.480;7.594;2023-02-04T03:20:03;39.53;;;5.72;;
25567;SDS011;13455;51.480;7.594;2023-02-04T03:22:29;33.75;;;5.20;;
25567;SDS011;13455;51.480;7.594;2023-02-04T03:24:55;36.50;;;5.43;;
25567;SDS011;13455;51.480;7.594;2023-02-04T03:27:22;38.05;;;5.78;;
25567;SDS011;13455;51.480;7.594;2023-02-04T03:29:49;39.03;;;5.90;;
25567;SDS011;13455;51.480;7.594;2023-02-04T03:32:15;37.05;;;5.30;;
25567;SDS011;13455;51.480;7.594;2023-02-04T03:34:41;37.13;;;5.50;;
25567;SDS011;13455;51.480;7.594;2023-02-04T03:37:07;33.67;;;5.20;;
25567;SDS011;13455;51.480;7.594;2023-02-04T03:39:33;35.45;;;5.70;;
25567;SDS011;13455;51.480;7.594;2023-02-04T03:41:59;38.20;;;5.70;;
25567;SDS011;13455;51.480;7.594;2023-02-04T03:44:25;37.60;;;5.72;;
25567;SDS011;13455;51.480;7.594;2023-02-04T03:46:52;35.97;;;5.50;;
25567;SDS011;13455;51.480;7.594;2023-02-04T03:49:20;32.00;;;5.10;;
25567;SDS011;13455;51.480;7.594;2023-02-04T03:51:46;38.65;;;5.72;;
25567;SDS011;13455;51.480;7.594;2023-02-04T03:54:12;35.22;;;6.00;;
25567;SDS011;13455;51.480;7.594;2023-02-04T03:56:38;36.08;;;5.47;;
25567;SDS011;13455;51.480;7.594;2023-02-04T03:59:04;36.83;;;5.20;;
25567;SDS011;13455;51.480;7.594;2023-02-04T04:01:30;34.35;;;5.60;;
25567;SDS011;13455;51.480;7.594;2023-02-04T04:03:56;36.42;;;5.63;;
25567;SDS011;13455;51.480;7.594;2023-02-04T04:06:22;32.72;;;5.32;;
25567;SDS011;13455;51.480;7.594;2023-02-04T04:08:48;37.55;;;5.50;;
25567;SDS011;13455;51.480;7.594;2023-02-04T04:11:14;36.15;;;6.00;;
25567;SDS011;13455;51.480;7.594;2023-02-04T04:13:40;31.30;;;5.50;;
25567;SDS011;13455;51.480;7.594;2023-02-04T04:16:06;34.40;;;5.50;;
25567;SDS011;13455;51.480;7.594;2023-02-04T04:18:33;38.60;;;5.27;;
25567;SDS011;13455;51.480;7.594;2023-02-04T04:20:59;29.90;;;5.40;;
25567;SDS011;13455;51.480;7.594;2023-02-04T04:23:25;40.55;;;5.78;;
25567;SDS011;13455;51.480;7.594;2023-02-04T04:25:51;36.83;;;5.32;;
25567;SDS011;13455;51.480;7.594;2023-02-04T04:28:17;42.22;;;5.30;;
25567;SDS011;13455;51.480;7.594;2023-02-04T04:30:43;33.38;;;5.85;;
25567;SDS011;13455;51.480;7.594;2023-02-04T04:33:09;34.10;;;6.13;;
25567;SDS011;13455;51.480;7.594;2023-02-04T04:35:35;41.47;;;6.18;;
25567;SDS011;13455;51.480;7.594;2023-02-04T04:38:02;39.07;;;5.80;;
25567;SDS011;13455;51.480;7.594;2023-02-04T04:40:28;40.72;;;6.38;;
25567;SDS011;13455;51.480;7.594;2023-02-04T04:42:54;37.57;;;6.43;;
25567;SDS011;13455;51.480;7.594;2023-02-04T04:45:20;30.08;;;5.90;;
25567;SDS011;13455;51.480;7.594;2023-02-04T04:47:46;31.15;;;5.25;;
25567;SDS011;13455;51.480;7.594;2023-02-04T04:50:12;35.95;;;6.00;;
25567;SDS011;13455;51.480;7.594;2023-02-04T04:52:38;36.30;;;5.35;;
25567;SDS011;13455;51.480;7.594;2023-02-04T04:55:04;36.42;;;5.95;;
25567;SDS011;13455;51.480;7.594;2023-02-04T04:57:31;34.67;;;5.90;;
25567;SDS011;13455;51.480;7.594;2023-02-04T04:59:57;40.38;;;5.60;;
25567;SDS011;13455;51.480;7.594;2023-02-04T05:02:23;41.60;;;6.40;;
25567;SDS011;13455;51.480;7.594;2023-02-04T05:04:48;34.65;;;5.13;;
25567;SDS011;13455;51.480;7.594;2023-02-04T05:07:14;36.90;;;5.55;;
25567;SDS011;13455;51.480;7.594;2023-02-04T05:09:40;38.08;;;5.40;;
25567;SDS011;13455;51.480;7.594;2023-02-04T05:12:06;35.05;;;5.18;;
25567;SDS011;13455;51.480;7.594;2023-02-04T05:14:32;36.87;;;5.90;;
25567;SDS011;13455;51.480;7.594;2023-02-04T05:16:58;35.35;;;5.50;;
25567;SDS011;13455;51.480;7.594;2023-02-04T05:19:24;39.30;;;5.63;;
25567;SDS011;13455;51.480;7.594;2023-02-04T05:21:50;37.13;;;5.57;;
25567;SDS011;13455;51.480;7.594;2023-02-04T05:24:16;38.88;;;5.95;;
25567;SDS011;13455;51.480;7.594;2023-02-04T05:26:42;39.90;;;6.07;;
25567;SDS011;13455;51.480;7.594;2023-02-04T05:29:08;34.92;;;5.43;;
25567;SDS011;13455;51.480;7.594;2023-02-04T05:31:34;40.08;;;5.78;;
25567;SDS011;13455;51.480;7.594;2023-02-04T05:34:00;37.50;;;5.30;;
25567;SDS011;13455;51.480;7.594;2023-02-04T05:36:26;36.50;;;5.35;;
25567;SDS011;13455;51.480;7.594;2023-02-04T05:38:52;35.42;;;5.55;;
25567;SDS011;13455;51.480;7.594;2023-02-04T05:41:18;39.55;;;5.63;;
25567;SDS011;13455;51.480;7.594;2023-02-04T05:43:44;36.53;;;6.10;;
25567;SDS011;13455;51.480;7.594;2023-02-04T05:46:10;34.10;;;5.72;;
25567;SDS011;13455;51.480;7.594;2023-02-04T05:48:36;36.43;;;6.03;;
25567;SDS011;13455;51.480;7.594;2023-02-04T05:51:04;38.05;;;5.85;;
25567;SDS011;13455;51.480;7.594;2023-02-04T05:53:30;37.83;;;5.80;;
25567;SDS011;13455;51.480;7.594;2023-02-04T05:55:56;35.38;;;5.60;;
25567;SDS011;13455;51.480;7.594;2023-02-04T05:58:22;39.85;;;6.05;;
25567;SDS011;13455;51.480;7.594;2023-02-04T06:00:48;36.50;;;5.40;;
25567;SDS011;13455;51.480;7.594;2023-02-04T06:03:14;36.70;;;5.55;;
25567;SDS011;13455;51.480;7.594;2023-02-04T06:05:40;37.63;;;5.68;;
25567;SDS011;13455;51.480;7.594;2023-02-04T06:08:08;37.15;;;5.70;;
25567;SDS011;13455;51.480;7.594;2023-02-04T06:10:35;40.42;;;5.45;;
25567;SDS011;13455;51.480;7.594;2023-02-04T06:13:01;37.70;;;5.95;;
25567;SDS011;13455;51.480;7.594;2023-02-04T06:15:26;35.88;;;5.60;;
25567;SDS011;13455;51.480;7.594;2023-02-04T06:17:52;38.50;;;6.18;;
25567;SDS011;13455;51.480;7.594;2023-02-04T06:20:18;40.25;;;5.93;;
25567;SDS011;13455;51.480;7.594;2023-02-04T06:22:44;36.85;;;5.72;;
25567;SDS011;13455;51.480;7.594;2023-02-04T06:25:11;44.03;;;5.72;;
25567;SDS011;13455;51.480;7.594;2023-02-04T06:27:37;41.75;;;5.57;;
25567;SDS011;13455;51.480;7.594;2023-02-04T06:30:03;38.88;;;5.45;;
25567;SDS011;13455;51.480;7.594;2023-02-04T06:32:29;37.97;;;5.70;;
25567;SDS011;13455;51.480;7.594;2023-02-04T06:34:55;37.95;;;5.95;;
25567;SDS011;13455;51.480;7.594;2023-02-04T06:37:21;35.97;;;6.00;;
25567;SDS011;13455;51.480;7.594;2023-02-04T06:39:49;40.13;;;6.57;;
25567;SDS011;13455;51.480;7.594;2023-02-04T06:42:15;38.00;;;5.88;;
25567;SDS011;13455;51.480;7.594;2023-02-04T06:44:41;31.90;;;5.32;;
25567;SDS011;13455;51.480;7.594;2023-02-04T06:47:07;34.13;;;5.40;;
25567;SDS011;13455;51.480;7.594;2023-02-04T06:49:33;35.83;;;5.38;;
25567;SDS011;13455;51.480;7.594;2023-02-04T06:51:59;38.15;;;5.72;;
25567;SDS011;13455;51.480;7.594;2023-02-04T06:54:25;39.70;;;5.80;;
25567;SDS011;13455;51.480;7.594;2023-02-04T06:56:51;38.97;;;6.45;;
25567;SDS011;13455;51.480;7.594;2023-02-04T06:59:17;38.83;;;6.07;;
25567;SDS011;13455;51.480;7.594;2023-02-04T07:01:43;38.10;;;5.97;;
25567;SDS011;13455;51.480;7.594;2023-02-04T07:04:09;37.90;;;6.18;;
25567;SDS011;13455;51.480;7.594;2023-02-04T07:06:35;40.40;;;5.47;;
25567;SDS011;13455;51.480;7.594;2023-02-04T07:09:01;39.90;;;6.05;;
25567;SDS011;13455;51.480;7.594;2023-02-04T07:11:27;41.38;;;6.18;;
25567;SDS011;13455;51.480;7.594;2023-02-04T07:13:53;35.43;;;6.33;;
25567;SDS011;13455;51.480;7.594;2023-02-04T07:16:19;40.72;;;5.82;;
25567;SDS011;13455;51.480;7.594;2023-02-04T07:18:45;37.05;;;6.15;;
25567;SDS011;13455;51.480;7.594;2023-02-04T07:21:11;34.95;;;5.78;;
25567;SDS011;13455;51.480;7.594;2023-02-04T07:23:37;46.15;;;6.85;;
25567;SDS011;13455;51.480;7.594;2023-02-04T07:26:03;36.83;;;5.80;;
25567;SDS011;13455;51.480;7.594;2023-02-04T07:28:29;38.72;;;6.30;;
25567;SDS011;13455;51.480;7.594;2023-02-04T07:30:55;41.28;;;6.32;;
25567;SDS011;13455;51.480;7.594;2023-02-04T07:33:21;39.92;;;5.85;;
25567;SDS011;13455;51.480;7.594;2023-02-04T07:35:47;34.55;;;6.15;;
25567;SDS011;13455;51.480;7.594;2023-02-04T07:38:13;38.17;;;6.17;;
25567;SDS011;13455;51.480;7.594;2023-02-04T07:40:39;40.85;;;6.32;;
25567;SDS011;13455;51.480;7.594;2023-02-04T07:43:05;38.72;;;6.00;;
25567;SDS011;13455;51.480;7.594;2023-02-04T07:45:31;34.92;;;6.28;;
25567;SDS011;13455;51.480;7.594;2023-02-04T07:47:57;40.55;;;6.13;;
25567;SDS011;13455;51.480;7.594;2023-02-04T07:50:23;37.35;;;6.05;;
25567;SDS011;13455;51.480;7.594;2023-02-04T07:52:49;37.53;;;6.05;;
25567;SDS011;13455;51.480;7.594;2023-02-04T07:55:15;33.75;;;6.28;;
25567;SDS011;13455;51.480;7.594;2023-02-04T07:57:42;44.97;;;7.40;;
25567;SDS011;13455;51.480;7.594;2023-02-04T08:00:08;37.20;;;6.43;;
25567;SDS011;13455;51.480;7.594;2023-02-04T08:02:34;37.88;;;5.95;;
25567;SDS011;13455;51.480;7.594;2023-02-04T08:05:00;34.75;;;5.85;;
25567;SDS011;13455;51.480;7.594;2023-02-04T08:07:27;40.35;;;6.43;;
25567;SDS011;13455;51.480;7.594;2023-02-04T08:09:53;38.25;;;6.18;;
25567;SDS011;13455;51.480;7.594;2023-02-04T08:12:19;39.83;;;6.40;;
25567;SDS011;13455;51.480;7.594;2023-02-04T08:14:45;42.90;;;6.50;;
25567;SDS011;13455;51.480;7.594;2023-02-04T08:17:11;37.33;;;6.30;;
25567;SDS011;13455;51.480;7.594;2023-02-04T08:19:37;40.42;;;6.70;;
25567;SDS011;13455;51.480;7.594;2023-02-04T08:22:03;42.65;;;6.90;;
25567;SDS011;13455;51.480;7.594;2023-02-04T08:24:29;42.13;;;6.90;;
25567;SDS011;13455;51.480;7.594;2023-02-04T08:26:55;46.47;;;7.35;;
25567;SDS011;13455;51.480;7.594;2023-02-04T08:29:22;43.13;;;7.17;;
25567;SDS011;13455;51.480;7.594;2023-02-04T08:31:49;40.28;;;7.43;;
25567;SDS011;13455;51.480;7.594;2023-02-04T08:34:15;42.42;;;7.22;;
25567;SDS011;13455;51.480;7.594;2023-02-04T08:36:41;40.22;;;7.07;;
25567;SDS011;13455;51.480;7.594;2023-02-04T08:39:08;39.63;;;6.80;;
25567;SDS011;13455;51.480;7.594;2023-02-04T08:41:35;45.75;;;7.18;;
25567;SDS011;13455;51.480;7.594;2023-02-04T08:44:01;38.97;;;6.18;;
25567;SDS011;13455;51.480;7.594;2023-02-04T08:46:26;48.13;;;7.00;;
25567;SDS011;13455;51.480;7.594;2023-02-04T08:48:52;38.67;;;5.95;;
25567;SDS011;13455;51.480;7.594;2023-02-04T08:51:18;44.03;;;6.72;;
25567;SDS011;13455;51.480;7.594;2023-02-04T08:53:43;47.25;;;6.72;;
25567;SDS011;13455;51.480;7.594;2023-02-04T08:56:09;47.15;;;6.60;;
25567;SDS011;13455;51.480;7.594;2023-02-04T08:58:39;40.38;;;6.65;;
25567;SDS011;13455;51.480;7.594;2023-02-04T09:01:05;45.08;;;6.00;;
25567;SDS011;13455;51.480;7.594;2023-02-04T09:03:31;46.58;;;6.57;;
25567;SDS011;13455;51.480;7.594;2023-02-04T09:05:56;35.47;;;6.43;;
25567;SDS011;13455;51.480;7.594;2023-02-04T09:08:22;44.23;;;6.80;;
25567;SDS011;13455;51.480;7.594;2023-02-04T09:10:48;40.37;;;6.97;;
25567;SDS011;13455;51.480;7.594;2023-02-04T09:13:13;38.00;;;6.85;;
25567;SDS011;13455;51.480;7.594;2023-02-04T09:15:39;32.70;;;6.43;;
25567;SDS011;13455;51.480;7.594;2023-02-04T09:18:04;43.50;;;7.00;;
25567;SDS011;13455;51.480;7.594;2023-02-04T09:20:38;39.65;;;6.80;;
25567;SDS011;13455;51.480;7.594;2023-02-04T09:23:04;44.60;;;6.93;;
25567;SDS011;13455;51.480;7.594;2023-02-04T09:25:33;44.10;;;8.10;;
25567;SDS011;13455;51.480;7.594;2023-02-04T09:27:58;41.97;;;7.70;;
25567;SDS011;13455;51.480;7.594;2023-02-04T09:30:24;42.10;;;7.47;;
25567;SDS011;13455;51.480;7.594;2023-02-04T09:32:50;48.57;;;7.20;;
25567;SDS011;13455;51.480;7.594;2023-02-04T09:35:15;44.33;;;7.27;;
25567;SDS011;13455;51.480;7.594;2023-02-04T09:37:41;43.57;;;7.93;;
25567;SDS011;13455;51.480;7.594;2023-02-04T09:40:08;42.10;;;8.07;;
25567;SDS011;13455;51.480;7.594;2023-02-04T09:42:38;38.35;;;7.55;;
25567;SDS011;13455;51.480;7.594;2023-02-04T09:45:04;39.03;;;7.10;;
25567;SDS011;13455;51.480;7.594;2023-02-04T09:47:30;37.03;;;6.90;;
25567;SDS011;13455;51.480;7.594;2023-02-04T09:49:56;45.00;;;7.43;;
25567;SDS011;13455;51.480;7.594;2023-02-04T09:52:22;38.90;;;7.40;;
25567;SDS011;13455;51.480;7.594;2023-02-04T09:54:48;39.47;;;8.45;;
25567;SDS011;13455;51.480;7.594;2023-02-04T09:57:16;41.40;;;7.57;;
25567;SDS011;13455;51.480;7.594;2023-02-04T09:59:43;36.47;;;8.55;;
25567;SDS011;13455;51.480;7.594;2023-02-04T10:02:13;44.43;;;9.63;;
25567;SDS011;13455;51.480;7.594;2023-02-04T10:04:47;43.10;;;8.93;;
25567;SDS011;13455;51.480;7.594;2023-02-04T10:07:14;43.22;;;9.10;;
25567;SDS011;13455;51.480;7.594;2023-02-04T10:09:42;39.78;;;8.90;;
25567;SDS011;13455;51.480;7.594;2023-02-04T10:12:08;42.80;;;7.80;;
25567;SDS011;13455;51.480;7.594;2023-02-04T10:14:34;44.63;;;7.93;;
25567;SDS011;13455;51.480;7.594;2023-02-04T10:17:00;40.40;;;7.60;;
25567;SDS011;13455;51.480;7.594;2023-02-04T10:19:27;40.90;;;7.85;;
25567;SDS011;13455;51.480;7.594;2023-02-04T10:21:53;33.50;;;7.10;;
25567;SDS011;13455;51.480;7.594;2023-02-04T10:24:20;38.17;;;7.40;;
25567;SDS011;13455;51.480;7.594;2023-02-04T10:26:50;39.60;;;7.90;;
25567;SDS011;13455;51.480;7.594;2023-02-04T10:29:17;42.05;;;8.00;;
25567;SDS011;13455;51.480;7.594;2023-02-04T10:31:49;38.03;;;7.80;;
25567;SDS011;13455;51.480;7.594;2023-02-04T10:34:37;45.03;;;7.50;;
25567;SDS011;13455;51.480;7.594;2023-02-04T10:37:37;40.97;;;8.18;;
25567;SDS011;13455;51.480;7.594;2023-02-04T10:39:56;36.72;;;7.25;;
25567;SDS011;13455;51.480;7.594;2023-02-04T10:42:26;37.50;;;7.03;;
25567;SDS011;13455;51.480;7.594;2023-02-04T10:44:53;33.67;;;7.00;;
25567;SDS011;13455;51.480;7.594;2023-02-04T10:47:20;38.00;;;7.38;;
25567;SDS011;13455;51.480;7.594;2023-02-04T10:52:21;37.00;;;7.78;;
25567;SDS011;13455;51.480;7.594;2023-02-04T10:54:50;33.85;;;7.15;;
25567;SDS011;13455;51.480;7.594;2023-02-04T10:57:23;38.50;;;7.35;;
25567;SDS011;13455;51.480;7.594;2023-02-04T10:59:59;32.90;;;7.43;;
25567;SDS011;13455;51.480;7.594;2023-02-04T11:04:51;33.72;;;6.70;;
25567;SDS011;13455;51.480;7.594;2023-02-04T11:07:17;36.23;;;8.00;;
25567;SDS011;13455;51.480;7.594;2023-02-04T11:09:44;37.45;;;7.07;;
25567;SDS011;13455;51.480;7.594;2023-02-04T11:12:18;36.27;;;6.93;;
25567;SDS011;13455;51.480;7.594;2023-02-04T11:14:53;35.10;;;6.93;;
25567;SDS011;13455;51.480;7.594;2023-02-04T11:17:19;32.37;;;6.90;;
25567;SDS011;13455;51.480;7.594;2023-02-04T11:19:45;29.83;;;7.03;;
25567;SDS011;13455;51.480;7.594;2023-02-04T11:22:22;31.75;;;7.13;;
25567;SDS011;13455;51.480;7.594;2023-02-04T11:24:59;31.88;;;6.75;;
25567;SDS011;13455;51.480;7.594;2023-02-04T11:27:36;32.20;;;7.18;;
25567;SDS011;13455;51.480;7.594;2023-02-04T11:30:04;36.23;;;7.27;;
25567;SDS011;13455;51.480;7.594;2023-02-04T11:32:43;34.45;;;7.70;;
25567;SDS011;13455;51.480;7.594;2023-02-04T11:35:21;39.45;;;8.63;;
25567;SDS011;13455;51.480;7.594;2023-02-04T11:37:48;38.25;;;7.78;;
25567;SDS011;13455;51.480;7.594;2023-02-04T11:42:56;35.00;;;7.57;;
25567;SDS011;13455;51.480;7.594;2023-02-04T11:45:24;40.28;;;7.70;;
25567;SDS011;13455;51.480;7.594;2023-02-04T11:47:51;34.50;;;7.13;;
25567;SDS011;13455;51.480;7.594;2023-02-04T11:50:21;33.75;;;7.32;;
25567;SDS011;13455;51.480;7.594;2023-02-04T11:52:50;37.65;;;7.47;;
25567;SDS011;13455;51.480;7.594;2023-02-04T11:55:18;36.10;;;7.28;;
25567;SDS011;13455;51.480;7.594;2023-02-04T11:57:44;35.22;;;8.25;;
25567;SDS011;13455;51.480;7.594;2023-02-04T12:00:17;39.70;;;8.70;;
25567;SDS011;13455;51.480;7.594;2023-02-04T12:02:48;31.83;;;8.40;;
25567;SDS011;13455;51.480;7.594;2023-02-04T12:05:18;37.45;;;8.27;;
25567;SDS011;13455;51.480;7.594;2023-02-04T12:07:45;33.72;;;8.27;;
25567;SDS011;13455;51.480;7.594;2023-02-04T12:12:53;39.13;;;8.85;;
25567;SDS011;13455;51.480;7.594;2023-02-04T12:18:02;33.60;;;10.30;;
25567;SDS011;13455;51.480;7.594;2023-02-04T12:20:28;35.88;;;10.82;;
25567;SDS011;13455;51.480;7.594;2023-02-04T12:22:55;37.65;;;10.70;;
25567;SDS011;13455;51.480;7.594;2023-02-04T12:25:22;40.88;;;10.75;;
25567;SDS011;13455;51.480;7.594;2023-02-04T12:27:48;34.60;;;10.63;;
25567;SDS011;13455;51.480;7.594;2023-02-04T12:30:15;37.95;;;10.27;;
25567;SDS011;13455;51.480;7.594;2023-02-04T12:32:42;36.53;;;9.57;;
25567;SDS011;13455;51.480;7.594;2023-02-04T12:35:08;37.53;;;9.98;;
25567;SDS011;13455;51.480;7.594;2023-02-04T12:37:34;37.92;;;9.32;;
25567;SDS011;13455;51.480;7.594;2023-02-04T12:40:00;41.45;;;10.02;;
25567;SDS011;13455;51.480;7.594;2023-02-04T12:42:26;42.30;;;10.40;;
25567;SDS011;13455;51.480;7.594;2023-02-04T12:44:52;36.92;;;10.05;;
25567;SDS011;13455;51.480;7.594;2023-02-04T12:47:18;39.17;;;9.88;;
25567;SDS011;13455;51.480;7.594;2023-02-04T12:49:44;37.10;;;10.30;;
25567;SDS011;13455;51.480;7.594;2023-02-04T12:52:10;43.88;;;11.52;;
25567;SDS011;13455;51.480;7.594;2023-02-04T12:54:36;44.15;;;12.50;;
25567;SDS011;13455;51.480;7.594;2023-02-04T12:57:02;37.05;;;11.18;;
25567;SDS011;13455;51.480;7.594;2023-02-04T12:59:28;42.90;;;12.10;;
25567;SDS011;13455;51.480;7.594;2023-02-04T13:01:55;41.88;;;12.43;;
25567;SDS011;13455;51.480;7.594;2023-02-04T13:04:21;38.10;;;12.25;;
25567;SDS011;13455;51.480;7.594;2023-02-04T13:06:47;40.28;;;12.02;;
25567;SDS011;13455;51.480;7.594;2023-02-04T13:09:13;42.00;;;12.87;;
25567;SDS011;13455;51.480;7.594;2023-02-04T13:11:39;40.60;;;12.73;;
25567;SDS011;13455;51.480;7.594;2023-02-04T13:14:05;42.27;;;12.30;;
25567;SDS011;13455;51.480;7.594;2023-02-04T13:16:30;39.83;;;12.37;;
25567;SDS011;13455;51.480;7.594;2023-02-04T13:18:56;45.87;;;12.53;;
25567;SDS011;13455;51.480;7.594;2023-02-04T13:21:21;41.70;;;13.18;;
25567;SDS011;13455;51.480;7.594;2023-02-04T13:23:47;43.83;;;13.65;;
25567;SDS011;13455;51.480;7.594;2023-02-04T13:26:13;45.63;;;15.07;;
25567;SDS011;13455;51.480;7.594;2023-02-04T13:28:38;46.10;;;14.27;;
25567;SDS011;13455;51.480;7.594;2023-02-04T13:31:04;45.55;;;14.85;;
25567;SDS011;13455;51.480;7.594;2023-02-04T13:33:30;41.70;;;14.00;;
25567;SDS011;13455;51.480;7.594;2023-02-04T13:35:56;46.92;;;14.38;;
25567;SDS011;13455;51.480;7.594;2023-02-04T13:38:21;45.28;;;14.48;;
25567;SDS011;13455;51.480;7.594;2023-02-04T13:40:47;44.88;;;14.00;;
25567;SDS011;13455;51.480;7.594;2023-02-04T13:43:13;42.00;;;14.07;;
25567;SDS011;13455;51.480;7.594;2023-02-04T13:45:38;43.13;;;14.55;;
25567;SDS011;13455;51.480;7.594;2023-02-04T13:48:04;41.15;;;13.70;;
25567;SDS011;13455;51.480;7.594;2023-02-04T13:50:30;46.05;;;14.13;;
25567;SDS011;13455;51.480;7.594;2023-02-04T13:52:56;43.13;;;13.73;;
25567;SDS011;13455;51.480;7.594;2023-02-04T13:55:21;46.20;;;14.52;;
25567;SDS011;13455;51.480;7.594;2023-02-04T13:57:47;48.22;;;15.35;;
25567;SDS011;13455;51.480;7.594;2023-02-04T14:00:13;48.90;;;17.15;;
25567;SDS011;13455;51.480;7.594;2023-02-04T14:02:39;46.25;;;13.45;;
25567;SDS011;13455;51.480;7.594;2023-02-04T14:05:04;42.28;;;14.10;;
25567;SDS011;13455;51.480;7.594;2023-02-04T14:07:30;42.95;;;12.15;;
25567;SDS011;13455;51.480;7.594;2023-02-04T14:09:57;36.80;;;10.23;;
25567;SDS011;13455;51.480;7.594;2023-02-04T14:12:23;37.00;;;9.02;;
25567;SDS011;13455;51.480;7.594;2023-02-04T14:14:48;32.93;;;8.47;;
25567;SDS011;13455;51.480;7.594;2023-02-04T14:17:14;34.70;;;8.90;;
25567;SDS011;13455;51.480;7.594;2023-02-04T14:19:40;36.33;;;9.50;;
25567;SDS011;13455;51.480;7.594;2023-02-04T14:22:06;35.87;;;9.20;;
25567;SDS011;13455;51.480;7.594;2023-02-04T14:24:31;32.13;;;9.20;;
25567;SDS011;13455;51.480;7.594;2023-02-04T14:26:58;34.80;;;8.70;;
25567;SDS011;13455;51.480;7.594;2023-02-04T14:29:23;42.65;;;13.60;;
25567;SDS011;13455;51.480;7.594;2023-02-04T14:31:49;33.47;;;8.52;;
25567;SDS011;13455;51.480;7.594;2023-02-04T14:34:15;34.67;;;7.77;;
25567;SDS011;13455;51.480;7.594;2023-02-04T14:36:40;38.70;;;7.80;;
25567;SDS011;13455;51.480;7.594;2023-02-04T14:39:06;29.40;;;7.37;;
25567;SDS011;13455;51.480;7.594;2023-02-04T14:41:32;31.67;;;7.50;;
25567;SDS011;13455;51.480;7.594;2023-02-04T14:43:57;38.20;;;8.60;;
25567;SDS011;13455;51.480;7.594;2023-02-04T14:46:23;37.55;;;9.15;;